Map

Track Data

SID SEASON NUMBER BASIN SUBBASIN NAME ISO_TIME NATURE LAT LON WMO_WIND WMO_PRES WMO_AGENCY TRACK_TYPE DIST2LAND LANDFALL IFLAG USA_AGENCY USA_ATCF_ID USA_LAT USA_LON USA_RECORD USA_STATUS USA_WIND USA_PRES USA_SSHS USA_R34_NE USA_R34_SE USA_R34_SW USA_R34_NW USA_R50_NE USA_R50_SE USA_R50_SW USA_R50_NW USA_R64_NE USA_R64_SE USA_R64_SW USA_R64_NW USA_POCI USA_ROCI USA_RMW USA_EYE TOKYO_LAT TOKYO_LON TOKYO_GRADE TOKYO_WIND TOKYO_PRES TOKYO_R50_DIR TOKYO_R50_LONG TOKYO_R50_SHORT TOKYO_R30_DIR TOKYO_R30_LONG TOKYO_R30_SHORT TOKYO_LAND CMA_LAT CMA_LON CMA_CAT CMA_WIND CMA_PRES HKO_LAT HKO_LON HKO_CAT HKO_WIND HKO_PRES NEWDELHI_LAT NEWDELHI_LON NEWDELHI_GRADE NEWDELHI_WIND NEWDELHI_PRES NEWDELHI_CI NEWDELHI_DP NEWDELHI_POCI REUNION_LAT REUNION_LON REUNION_TYPE REUNION_WIND REUNION_PRES REUNION_TNUM REUNION_CI REUNION_RMW REUNION_R34_NE REUNION_R34_SE REUNION_R34_SW REUNION_R34_NW REUNION_R50_NE REUNION_R50_SE REUNION_R50_SW REUNION_R50_NW REUNION_R64_NE REUNION_R64_SE REUNION_R64_SW REUNION_R64_NW BOM_LAT BOM_LON BOM_TYPE BOM_WIND BOM_PRES BOM_TNUM BOM_CI BOM_RMW BOM_R34_NE BOM_R34_SE BOM_R34_SW BOM_R34_NW BOM_R50_NE BOM_R50_SE BOM_R50_SW BOM_R50_NW BOM_R64_NE BOM_R64_SE BOM_R64_SW BOM_R64_NW BOM_ROCI BOM_POCI BOM_EYE BOM_POS_METHOD BOM_PRES_METHOD NADI_LAT NADI_LON NADI_CAT NADI_WIND NADI_PRES WELLINGTON_LAT WELLINGTON_LON WELLINGTON_WIND WELLINGTON_PRES DS824_LAT DS824_LON DS824_STAGE DS824_WIND DS824_PRES TD9636_LAT TD9636_LON TD9636_STAGE TD9636_WIND TD9636_PRES TD9635_LAT TD9635_LON TD9635_WIND TD9635_PRES TD9635_ROCI NEUMANN_LAT NEUMANN_LON NEUMANN_CLASS NEUMANN_WIND NEUMANN_PRES MLC_LAT MLC_LON MLC_CLASS MLC_WIND MLC_PRES USA_GUST BOM_GUST BOM_GUST_PER REUNION_GUST REUNION_GUST_PER USA_SEAHGT USA_SEARAD_NE USA_SEARAD_SE USA_SEARAD_SW USA_SEARAD_NW STORM_SPEED STORM_DIR
1974269N16092 1974 110 NI BB NOT_NAMED 1974-09-26 00:00:00 TS 16.0000 92.0000 main 235 235 O________OO___ jtwc_io IO081974 16.0000 92.0000 -1 16.0000 92.0000 TC 25 16.0000 92.0000 1 7 269
1974269N16092 1974 110 NI BB NOT_NAMED 1974-09-26 03:00:00 TS 15.9942 91.6553 main 267 267 P________PP___ IO081974 15.9951 91.6675 -1 15.9951 91.6675 TC 25 15.9924 91.6309 1 7 270
1974269N16092 1974 110 NI BB NOT_NAMED 1974-09-26 06:00:00 TS 15.9992 91.2832 main 310 310 O________OP___ jtwc_io IO081974 16.0000 91.3000 -1 16.0000 91.3000 TC 25 15.9976 91.2496 1 8 273
1974269N16092 1974 110 NI BB NOT_NAMED 1974-09-26 09:00:00 TS 16.0280 90.8628 main 352 352 P________PP___ IO081974 16.0274 90.8724 -1 16.0274 90.8724 TC 25 16.0290 90.8435 1 9 277
1974269N16092 1974 110 NI BB NOT_NAMED 1974-09-26 12:00:00 TS 16.1000 90.4000 main 406 406 O________OO___ jtwc_io IO081974 16.1000 90.4000 -1 16.1000 90.4000 TC 25 16.1000 90.4000 1 9 282
1974269N16092 1974 110 NI BB NOT_NAMED 1974-09-26 15:00:00 TS 16.2249 89.9092 main 460 460 P________PP___ IO081974 16.2274 89.9075 -1 16.2274 89.9075 TC 25 16.2199 89.9127 1 10 287
1974269N16092 1974 110 NI BB NOT_NAMED 1974-09-26 18:00:00 TS 16.3943 89.4001 main 512 462 O________OP___ jtwc_io IO081974 16.4000 89.4000 -1 16.4000 89.4000 TC 25 16.3828 89.4002 1 10 290
1974269N16092 1974 110 NI BB NOT_NAMED 1974-09-26 21:00:00 TS 16.5831 88.8908 main 462 415 P________PP___ IO081974 16.5849 88.8924 -1 16.5849 88.8924 TC 25 16.5793 88.8876 1 10 293
1974269N16092 1974 110 NI BB NOT_NAMED 1974-09-27 00:00:00 TS 16.8000 88.4000 main 415 371 O________OO___ jtwc_io IO081974 16.8000 88.4000 -1 16.8000 88.4000 TC 25 16.8000 88.4000 2 10 296
1974269N16092 1974 110 NI BB NOT_NAMED 1974-09-27 03:00:00 TS 17.0364 87.9246 main 371 323 P________PP___ IO081974 17.0424 87.9275 -1 17.0424 87.9275 TC 30 17.0244 87.9188 2 10 299
1974269N16092 1974 110 NI BB NOT_NAMED 1974-09-27 06:00:00 TS 17.2900 87.4910 main 323 288 O________OP___ jtwc_io IO081974 17.3000 87.5000 -1 17.3000 87.5000 TC 35 17.2701 87.4730 2 9 303
1974269N16092 1974 110 NI BB NOT_NAMED 1974-09-27 09:00:00 TS 17.5436 87.0952 main 288 246 P________PP___ IO081974 17.5500 87.0975 -1 17.5500 87.0975 TC 35 17.5307 87.0907 2 8 308
1974269N16092 1974 110 NI BB NOT_NAMED 1974-09-27 12:00:00 TS 17.8000 86.8000 main 246 221 O________OO___ jtwc_io IO081974 17.8000 86.8000 -1 17.8000 86.8000 TC 35 17.8000 86.8000 2 7 321
1974269N16092 1974 110 NI BB NOT_NAMED 1974-09-27 15:00:00 TS 18.0479 86.6589 main 221 186 P________PP___ IO081974 18.0424 86.6548 -1 18.0424 86.6548 TC 35 18.0590 86.6669 2 5 340
1974269N16092 1974 110 NI BB NOT_NAMED 1974-09-27 18:00:00 TS 18.3089 86.6061 main 186 154 O________OP___ jtwc_io IO081974 18.3000 86.6000 -1 18.3000 86.6000 TC 35 18.3266 86.6183 2 6 352
1974269N16092 1974 110 NI BB NOT_NAMED 1974-09-27 21:00:00 TS 18.5969 86.5817 main 154 119 P________PP___ IO081974 18.5924 86.5798 -1 18.5924 86.5798 TC 35 18.6059 86.5856 2 6 351
1974269N16092 1974 110 NI BB NOT_NAMED 1974-09-28 00:00:00 TS 18.9000 86.5000 main 119 78 O________OO___ jtwc_io IO081974 18.9000 86.5000 -1 18.9000 86.5000 TC 35 18.9000 86.5000 2 7 331
1974269N16092 1974 110 NI BB NOT_NAMED 1974-09-28 03:00:00 TS 19.1974 86.2320 main 78 35 P________PP___ IO081974 19.1926 86.2375 -1 19.1926 86.2375 TC 35 19.2072 86.2209 2 8 317
1974269N16092 1974 110 NI BB NOT_NAMED 1974-09-28 06:00:00 TS 19.5095 85.8955 main 35 0 O________OP___ jtwc_io IO081974 19.5000 85.9000 -1 19.5000 85.9000 TC 35 19.5284 85.8864 2 9 316
1974269N16092 1974 110 NI BB NOT_NAMED 1974-09-28 09:00:00 TS 19.8485 85.5662 main 0 0 P________PP___ IO081974 19.8426 85.5701 -1 19.8426 85.5701 TC 35 19.8603 85.5585 2 9 321
1974269N16092 1974 110 NI BB NOT_NAMED 1974-09-28 12:00:00 TS 20.2000 85.3000 main 0 0 O________OO___ jtwc_io IO081974 20.2000 85.3000 -1 20.2000 85.3000 TC 35 20.2000 85.3000 2 8 331
1974269N16092 1974 110 NI BB NOT_NAMED 1974-09-28 15:00:00 TS 20.5434 85.1527 main 0 0 P________PP___ IO081974 20.5499 85.1474 -1 20.5499 85.1474 TC 30 20.5302 85.1632 2 7 345
1974269N16092 1974 110 NI BB NOT_NAMED 1974-09-28 18:00:00 TS 20.8898 85.1025 main 0 0 O________OP___ jtwc_io IO081974 20.9000 85.1000 -1 20.9000 85.1000 TC 25 20.8695 85.1074 2 7 356
1974269N16092 1974 110 NI BB NOT_NAMED 1974-09-28 21:00:00 TS 21.2363 85.1160 main 0 0 P________PP___ IO081974 21.2425 85.1125 -1 21.2425 85.1125 TC 30 21.2241 85.1229 2 7 7
1974269N16092 1974 110 NI BB NOT_NAMED 1974-09-29 00:00:00 TS 21.6000 85.2000 main 0 0 O________OO___ jtwc_io IO081974 21.6000 85.2000 -1 21.6000 85.2000 TC 35 21.6000 85.2000 1 8 14
1974269N16092 1974 110 NI BB NOT_NAMED 1974-09-29 03:00:00 TS 21.9938 85.3200 main 0 0 P________PP___ IO081974 21.9850 85.3275 -1 21.9850 85.3275 TC 30 22.0116 85.3050 1 9 18
1974269N16092 1974 110 NI BB NOT_NAMED 1974-09-29 06:00:00 TS 22.4142 85.4890 main 0 0 O________OP___ jtwc_io IO081974 22.4000 85.5000 -1 22.4000 85.5000 TC 25 22.4425 85.4671 1 9 21
1974269N16092 1974 110 NI BB NOT_NAMED 1974-09-29 09:00:00 TS 22.8590 85.6803 main 0 0 P________PP___ IO081974 22.8500 85.6851 -1 22.8500 85.6851 TC 25 22.8772 85.6708 1 10 23
1974269N16092 1974 110 NI BB NOT_NAMED 1974-09-29 12:00:00 TS 23.3000 85.9000 main 0 0 O________OO___ jtwc_io IO081974 23.3000 85.9000 -1 23.3000 85.9000 TC 25 23.3000 85.9000 1 10 26
1974269N16092 1974 110 NI BB NOT_NAMED 1974-09-29 15:00:00 TS 23.7097 86.1420 main 0 0 P________PP___ IO081974 23.7150 86.1426 -1 23.7150 86.1426 TC 25 23.6992 86.1409 1 9 30
1974269N16092 1974 110 NI BB NOT_NAMED 1974-09-29 18:00:00 TS 24.0926 86.3964 main 0 0 O________OP___ jtwc_io IO081974 24.1000 86.4000 -1 24.1000 86.4000 TC 25 24.0778 86.3892 1 9 32
1974269N16092 1974 110 NI BB NOT_NAMED 1974-09-29 21:00:00 TS 24.4525 86.6491 main 0 0 P________PP___ IO081974 24.4576 86.6523 -1 24.4576 86.6523 TC 25 24.4425 86.6429 1 8 33
1974269N16092 1974 110 NI BB NOT_NAMED 1974-09-30 00:00:00 TS 24.8000 86.9000 main 0 O________OO___ jtwc_io IO081974 24.8000 86.9000 -1 24.8000 86.9000 TC 25 24.8000 86.9000 6 8 33

About IBTrACS Database

This database is a web-friendly format of International Best Track Archive for Climate Stewardship (IBTrACS), a global best track data archive curated by NOAA dating back to 1842.

Updated: 2021-10-21